Time;durP1;ratioP1;P1;durP2;ratioP2;P2;SDS_P1;SDS_P2;PMS_P1;PMS_P2;Temp;Humidity;BMP_temperature;BMP_pressure;BME280_temperature;BME280_humidity;BME280_pressure;Samples;Min_cycle;Max_cycle;Signal;HPM_P1;HPM_P2
2022/08/24 00:00:16;;;;;;;2.60;0.98;;;26.70;67.80;;;;;;5052581;28;20021;-77
2022/08/24 00:02:42;;;;;;;1.67;0.90;;;26.70;67.80;;;;;;5052818;28;20037;-78
2022/08/24 00:05:08;;;;;;;1.98;0.70;;;26.70;68.10;;;;;;5052184;28;20346;-78
2022/08/24 00:07:35;;;;;;;1.50;0.73;;;26.70;68.10;;;;;;5055981;28;20052;-78
2022/08/24 00:10:01;;;;;;;1.88;0.90;;;26.60;68.00;;;;;;5056056;28;20025;-77
2022/08/24 00:12:27;;;;;;;1.48;0.65;;;26.60;68.10;;;;;;5056450;28;20021;-78
2022/08/24 00:14:53;;;;;;;1.90;1.00;;;26.70;68.10;;;;;;5056069;28;20468;-78
2022/08/24 00:17:19;;;;;;;2.08;1.00;;;26.60;68.00;;;;;;5055804;28;20033;-78
2022/08/24 00:19:45;;;;;;;1.95;1.00;;;26.60;68.10;;;;;;5056005;28;20028;-78
2022/08/24 00:22:12;;;;;;;1.48;0.90;;;26.60;68.10;;;;;;5055958;28;20043;-78
2022/08/24 00:24:37;;;;;;;1.33;0.90;;;26.60;68.10;;;;;;5055581;28;20052;-78
2022/08/24 00:27:05;;;;;;;2.05;0.90;;;26.50;68.60;;;;;;5055748;28;20029;-78
2022/08/24 00:29:31;;;;;;;1.90;1.10;;;26.50;68.90;;;;;;5056051;28;20047;-77
2022/08/24 00:31:56;;;;;;;2.85;1.00;;;26.40;69.30;;;;;;5055738;28;20162;-78
2022/08/24 00:34:22;;;;;;;2.13;1.15;;;26.40;69.20;;;;;;5055666;28;20025;-77
2022/08/24 00:36:48;;;;;;;1.15;0.88;;;26.40;69.20;;;;;;5055645;28;20053;-78
2022/08/24 00:39:14;;;;;;;2.13;1.00;;;26.40;69.10;;;;;;5055501;28;20104;-78
2022/08/24 00:41:44;;;;;;;1.60;1.02;;;26.40;69.10;;;;;;5055507;28;20033;-78
2022/08/24 00:44:12;;;;;;;2.28;0.73;;;26.40;69.10;;;;;;5055605;28;20035;-78
2022/08/24 00:47:16;;;;;;;2.22;1.05;;;26.40;69.10;;;;;;5055432;28;20120;-78
2022/08/24 00:49:55;;;;;;;2.15;0.90;;;26.40;68.90;;;;;;5055327;28;20025;-78
2022/08/24 00:52:26;;;;;;;2.05;1.20;;;26.40;68.90;;;;;;5055669;28;20021;-77
2022/08/24 00:55:01;;;;;;;2.17;0.80;;;26.40;68.90;;;;;;5055667;28;20033;-78
2022/08/24 00:57:30;;;;;;;1.30;0.88;;;26.40;68.90;;;;;;5055529;28;20032;-78
2022/08/24 01:00:04;;;;;;;2.72;0.77;;;26.30;68.80;;;;;;5055270;28;20021;-77
2022/08/24 01:02:33;;;;;;;1.42;0.73;;;26.40;69.00;;;;;;5055144;28;20043;-78
2022/08/24 01:05:05;;;;;;;1.90;0.95;;;26.30;69.00;;;;;;5055029;28;20100;-78
2022/08/24 01:07:33;;;;;;;2.58;1.33;;;26.30;69.20;;;;;;5054867;28;20469;-78
2022/08/24 01:10:04;;;;;;;2.20;1.20;;;26.30;69.40;;;;;;5055388;28;20028;-78
2022/08/24 01:12:31;;;;;;;1.35;1.00;;;26.30;69.60;;;;;;5054823;28;20051;-78
2022/08/24 01:14:59;;;;;;;1.75;0.90;;;26.20;69.60;;;;;;5055147;28;20380;-78
2022/08/24 01:20:10;;;;;;;1.50;0.60;;;26.30;69.50;;;;;;5054847;28;20062;-77
2022/08/24 01:22:55;;;;;;;1.33;0.85;;;26.30;69.60;;;;;;5054974;28;20033;-78
2022/08/24 01:25:23;;;;;;;1.67;1.05;;;26.20;69.60;;;;;;5054780;28;20118;-78
2022/08/24 01:27:50;;;;;;;2.30;1.08;;;26.20;69.60;;;;;;5054587;28;20074;-78
2022/08/24 01:30:16;;;;;;;2.28;0.93;;;26.20;69.60;;;;;;5054807;28;20044;-78
2022/08/24 01:32:53;;;;;;;1.40;0.80;;;26.20;69.70;;;;;;5054669;28;20021;-78
2022/08/24 01:35:19;;;;;;;1.30;0.75;;;26.20;69.80;;;;;;5054862;28;20423;-78
2022/08/24 01:37:44;;;;;;;1.70;0.77;;;26.20;69.70;;;;;;5054386;28;20107;-78
2022/08/24 01:40:10;;;;;;;1.42;0.70;;;26.20;69.70;;;;;;5054435;28;20114;-77
2022/08/24 01:42:36;;;;;;;1.25;1.05;;;26.20;69.70;;;;;;5054226;28;20040;-78
2022/08/24 01:45:03;;;;;;;2.03;0.73;;;26.20;69.80;;;;;;5054618;28;20021;-78
2022/08/24 01:47:29;;;;;;;1.15;0.80;;;26.20;69.80;;;;;;5054238;28;20530;-77
2022/08/24 01:49:54;;;;;;;1.98;0.90;;;26.20;69.80;;;;;;5054232;28;20025;-77
2022/08/24 01:52:23;;;;;;;2.55;0.80;;;26.20;70.60;;;;;;5054656;28;20028;-78
2022/08/24 01:54:48;;;;;;;2.65;1.08;;;26.10;70.00;;;;;;5054158;28;20048;-77
2022/08/24 01:57:15;;;;;;;1.42;0.80;;;26.10;70.00;;;;;;5054355;28;20071;-78
2022/08/24 01:59:41;;;;;;;1.25;0.90;;;26.10;70.00;;;;;;5054374;28;20032;-78
2022/08/24 02:02:18;;;;;;;2.10;0.90;;;26.10;70.20;;;;;;5053946;28;20480;-78
2022/08/24 02:04:44;;;;;;;1.45;0.90;;;26.10;70.20;;;;;;5054218;28;20028;-78
2022/08/24 02:07:12;;;;;;;1.95;1.10;;;26.10;70.30;;;;;;5054164;28;20029;-78
2022/08/24 02:09:37;;;;;;;2.22;1.30;;;26.10;70.30;;;;;;5053893;28;20083;-78
2022/08/24 02:12:05;;;;;;;2.17;1.23;;;26.10;70.30;;;;;;5054108;28;20028;-78
2022/08/24 02:14:30;;;;;;;3.67;1.15;;;26.00;70.20;;;;;;5054116;28;20036;-77
2022/08/24 02:16:57;;;;;;;2.00;0.90;;;26.00;70.40;;;;;;5054058;28;20029;-78
2022/08/24 02:19:24;;;;;;;1.52;1.10;;;26.00;71.10;;;;;;5053447;28;20472;-78
2022/08/24 02:21:49;;;;;;;2.28;0.80;;;26.00;70.50;;;;;;5053674;28;20142;-78
2022/08/24 02:24:15;;;;;;;2.20;1.17;;;26.00;70.60;;;;;;5053639;28;20079;-77
2022/08/24 02:26:41;;;;;;;2.25;1.48;;;26.00;70.70;;;;;;5053686;28;20388;-78
2022/08/24 02:29:06;;;;;;;2.22;1.05;;;25.90;70.70;;;;;;5053448;28;20085;-77
2022/08/24 02:31:33;;;;;;;2.45;1.17;;;26.00;70.80;;;;;;5053557;28;20071;-77
2022/08/24 02:33:58;;;;;;;1.67;0.98;;;25.90;70.80;;;;;;5053338;28;20055;-78
2022/08/24 02:36:24;;;;;;;1.80;1.27;;;25.90;70.80;;;;;;5053815;28;20483;-78
2022/08/24 02:38:50;;;;;;;2.55;1.88;;;25.90;70.90;;;;;;5053493;28;20056;-78
2022/08/24 02:41:16;;;;;;;3.05;1.60;;;25.80;72.00;;;;;;5053604;28;20053;-77
2022/08/24 02:43:42;;;;;;;2.20;1.27;;;25.70;72.10;;;;;;5053465;28;20033;-78
2022/08/24 02:46:14;;;;;;;4.47;1.80;;;25.70;72.20;;;;;;5053393;28;20028;-78
2022/08/24 02:48:40;;;;;;;2.00;1.20;;;25.60;72.20;;;;;;5053316;28;20039;-77
2022/08/24 02:51:06;;;;;;;2.45;1.20;;;25.60;72.10;;;;;;5053584;28;20021;-77
2022/08/24 02:53:31;;;;;;;2.92;1.00;;;25.60;72.00;;;;;;5053221;28;20021;-78
2022/08/24 02:55:57;;;;;;;2.08;1.20;;;25.60;72.00;;;;;;5053218;28;20021;-78
2022/08/24 02:58:22;;;;;;;2.17;1.40;;;25.60;72.00;;;;;;5053203;28;20067;-77
2022/08/24 03:00:48;;;;;;;1.50;1.23;;;25.60;72.20;;;;;;5053329;28;20036;-78
2022/08/24 03:03:14;;;;;;;1.10;0.95;;;25.60;72.20;;;;;;5053009;28;20487;-77
2022/08/24 03:05:39;;;;;;;2.10;1.75;;;25.60;72.10;;;;;;5053105;28;20021;-78
2022/08/24 03:08:05;;;;;;;1.33;1.17;;;25.60;72.50;;;;;;5053199;28;20033;-78
2022/08/24 03:10:31;;;;;;;1.50;0.90;;;25.50;72.50;;;;;;5053245;28;20017;-77
2022/08/24 03:12:58;;;;;;;1.80;1.33;;;25.50;72.50;;;;;;5053513;28;20412;-78
2022/08/24 03:15:23;;;;;;;1.98;1.38;;;25.50;72.90;;;;;;5053069;28;20123;-78
2022/08/24 03:17:50;;;;;;;2.00;1.55;;;25.50;72.40;;;;;;5053083;28;20129;-77
2022/08/24 03:20:18;;;;;;;2.80;1.77;;;25.50;72.40;;;;;;5053100;28;20025;-78
2022/08/24 03:22:45;;;;;;;2.80;1.30;;;25.50;72.30;;;;;;5053074;28;20033;-78
2022/08/24 03:25:11;;;;;;;2.22;1.17;;;25.60;72.20;;;;;;5052678;28;20404;-78
2022/08/24 03:27:37;;;;;;;1.67;0.95;;;25.60;72.10;;;;;;5052813;28;20473;-78
2022/08/24 03:30:05;;;;;;;1.75;1.17;;;25.60;72.10;;;;;;5052847;28;20031;-78
2022/08/24 03:32:31;;;;;;;2.25;1.40;;;25.60;72.00;;;;;;5052564;28;20059;-77
2022/08/24 03:34:56;;;;;;;2.17;1.23;;;25.60;72.10;;;;;;5053061;28;20418;-77
2022/08/24 03:37:24;;;;;;;1.70;1.50;;;25.60;72.10;;;;;;5053113;28;20076;-78
2022/08/24 03:39:50;;;;;;;1.42;1.08;;;25.50;72.10;;;;;;5053059;28;20060;-78
2022/08/24 03:42:16;;;;;;;1.65;0.98;;;25.50;72.10;;;;;;5055445;28;20049;-77
2022/08/24 03:44:41;;;;;;;1.48;1.00;;;25.60;72.10;;;;;;5056352;28;20025;-78
2022/08/24 03:47:09;;;;;;;2.33;1.20;;;25.60;72.00;;;;;;5056520;28;20033;-78
2022/08/24 03:49:36;;;;;;;1.40;0.95;;;25.60;72.00;;;;;;5056822;28;20029;-78
2022/08/24 03:52:02;;;;;;;1.90;1.15;;;25.60;72.00;;;;;;5056795;28;20025;-77
2022/08/24 03:54:28;;;;;;;1.92;1.38;;;25.60;72.00;;;;;;5056145;28;20025;-77
2022/08/24 03:56:53;;;;;;;3.45;1.40;;;25.60;71.90;;;;;;5056311;28;20028;-77
2022/08/24 03:59:19;;;;;;;2.55;1.15;;;25.60;72.00;;;;;;5056657;28;20041;-78
2022/08/24 04:01:45;;;;;;;1.92;1.10;;;25.60;72.00;;;;;;5056513;28;20531;-78
2022/08/24 04:04:10;;;;;;;2.38;1.33;;;25.60;72.00;;;;;;5055985;28;20071;-78
2022/08/24 04:06:36;;;;;;;2.53;1.10;;;25.60;72.10;;;;;;5056508;28;20028;-78
2022/08/24 04:09:03;;;;;;;1.95;1.48;;;25.50;72.10;;;;;;5056482;28;20093;-78
2022/08/24 04:11:30;;;;;;;2.80;1.63;;;25.50;72.20;;;;;;5056155;28;20025;-78
2022/08/24 04:13:57;;;;;;;4.70;3.55;;;25.40;72.60;;;;;;5056233;28;20029;-78
2022/08/24 04:16:24;;;;;;;3.67;2.30;;;25.40;73.10;;;;;;5056106;28;20025;-78
2022/08/24 04:18:50;;;;;;;2.85;2.05;;;25.30;73.20;;;;;;5055973;28;20025;-78
2022/08/24 04:21:21;;;;;;;2.92;2.05;;;25.30;73.20;;;;;;5056172;28;20361;-78
2022/08/24 04:23:48;;;;;;;1.67;1.20;;;25.30;73.10;;;;;;5055831;28;20119;-78
2022/08/24 04:26:14;;;;;;;4.28;2.63;;;25.30;72.90;;;;;;5055786;28;20033;-78
2022/08/24 04:28:40;;;;;;;1.80;1.48;;;25.20;74.00;;;;;;5055999;28;20029;-78
2022/08/24 04:31:06;;;;;;;1.70;1.10;;;25.20;73.80;;;;;;5056024;28;20477;-78
2022/08/24 04:33:32;;;;;;;1.10;0.90;;;25.20;73.50;;;;;;5055917;28;20055;-79
2022/08/24 04:35:59;;;;;;;1.50;1.40;;;25.20;73.90;;;;;;5055826;28;20017;-78
2022/08/24 04:38:25;;;;;;;1.63;1.50;;;25.20;73.20;;;;;;5055782;28;20029;-78
2022/08/24 04:40:51;;;;;;;1.83;1.40;;;25.20;73.10;;;;;;5055392;28;20040;-78
2022/08/24 04:43:17;;;;;;;1.48;1.20;;;25.20;73.20;;;;;;5055743;28;20041;-78
2022/08/24 04:45:45;;;;;;;3.63;1.58;;;25.20;73.20;;;;;;5055780;28;20079;-78
2022/08/24 04:48:12;;;;;;;2.45;2.03;;;25.20;73.20;;;;;;5055491;28;20025;-78
2022/08/24 04:50:39;;;;;;;2.17;1.65;;;25.20;73.40;;;;;;5055299;28;20120;-78
2022/08/24 04:53:06;;;;;;;2.03;1.80;;;25.20;74.10;;;;;;5054068;28;20025;-78
2022/08/24 04:55:33;;;;;;;1.60;1.48;;;25.20;73.70;;;;;;5055265;28;20473;-78
2022/08/24 04:57:59;;;;;;;4.68;2.50;;;25.10;73.70;;;;;;5055559;28;20029;-77
2022/08/24 05:00:24;;;;;;;2.90;2.00;;;25.10;74.20;;;;;;5055227;28;20372;-76
2022/08/24 05:02:50;;;;;;;2.20;1.63;;;25.00;74.30;;;;;;5055285;28;20037;-77
2022/08/24 05:05:15;;;;;;;1.90;1.70;;;25.10;74.30;;;;;;5055163;28;20358;-77
2022/08/24 05:07:42;;;;;;;1.67;1.58;;;25.00;74.10;;;;;;5055096;28;20035;-77
2022/08/24 05:10:11;;;;;;;2.22;1.42;;;25.10;74.00;;;;;;5054794;28;20044;-77
2022/08/24 05:12:37;;;;;;;1.50;1.33;;;25.10;74.00;;;;;;5055074;28;20029;-77
2022/08/24 05:15:04;;;;;;;2.28;1.83;;;25.10;73.90;;;;;;5054963;28;20492;-77
2022/08/24 05:17:31;;;;;;;5.20;3.92;;;25.10;74.00;;;;;;5054724;28;20091;-77
2022/08/24 05:19:57;;;;;;;5.93;3.13;;;25.10;74.40;;;;;;5054719;28;20025;-78
2022/08/24 05:22:23;;;;;;;3.00;1.58;;;25.00;75.00;;;;;;5054627;28;20033;-77
2022/08/24 05:24:50;;;;;;;1.92;1.17;;;25.00;74.80;;;;;;5054484;28;20094;-77
2022/08/24 05:27:16;;;;;;;1.65;1.55;;;25.00;74.50;;;;;;5054591;28;20024;-77
2022/08/24 05:29:43;;;;;;;1.50;1.20;;;25.00;74.30;;;;;;5054332;28;20094;-77
2022/08/24 05:32:08;;;;;;;1.60;1.23;;;25.00;74.30;;;;;;5053822;28;20501;-77
2022/08/24 05:34:35;;;;;;;2.75;1.70;;;25.00;74.20;;;;;;5054316;28;20029;-77
2022/08/24 05:37:00;;;;;;;4.03;2.25;;;25.00;74.20;;;;;;5054267;28;20051;-77
2022/08/24 05:39:27;;;;;;;2.30;1.50;;;25.00;74.30;;;;;;5054588;28;20464;-77
2022/08/24 05:41:53;;;;;;;3.80;3.40;;;25.10;74.20;;;;;;5054142;28;20025;-77
2022/08/24 05:44:18;;;;;;;2.25;1.70;;;25.10;74.60;;;;;;5054311;28;20029;-78
2022/08/24 05:46:44;;;;;;;2.75;1.75;;;25.10;74.80;;;;;;5053959;28;20392;-78
2022/08/24 05:49:10;;;;;;;1.92;1.52;;;25.10;74.50;;;;;;5054128;28;20028;-77
2022/08/24 05:51:37;;;;;;;5.15;4.43;;;25.20;74.40;;;;;;5054031;28;20051;-78
2022/08/24 05:54:03;;;;;;;3.78;2.60;;;25.20;74.50;;;;;;5053923;28;20073;-77
2022/08/24 05:56:29;;;;;;;2.13;1.70;;;25.20;75.30;;;;;;5054167;28;20092;-77
2022/08/24 05:58:55;;;;;;;1.83;1.50;;;25.20;74.70;;;;;;5053931;28;20020;-77
2022/08/24 06:01:24;;;;;;;5.15;4.65;;;25.30;74.50;;;;;;5053871;28;20020;-77
2022/08/24 06:03:51;;;;;;;3.42;2.85;;;25.30;74.90;;;;;;5053125;28;20067;-77
2022/08/24 06:06:19;;;;;;;2.65;2.45;;;25.30;74.90;;;;;;5053847;28;20032;-78
2022/08/24 06:08:47;;;;;;;2.80;2.50;;;25.40;74.70;;;;;;5054011;28;20381;-77
2022/08/24 06:11:26;;;;;;;4.22;2.30;;;25.40;74.50;;;;;;5053246;28;20033;-77
2022/08/24 06:13:53;;;;;;;3.05;2.13;;;25.50;74.20;;;;;;5053763;28;20028;-77
2022/08/24 06:16:19;;;;;;;3.97;3.25;;;25.60;74.20;;;;;;5053526;28;20480;-77
2022/08/24 06:18:45;;;;;;;2.00;1.60;;;25.60;74.20;;;;;;5053696;28;20025;-77
2022/08/24 06:21:14;;;;;;;4.10;2.90;;;25.70;73.90;;;;;;5053444;28;20035;-78
2022/08/24 06:23:42;;;;;;;10.55;7.30;;;25.70;73.90;;;;;;5053821;28;20114;-77
2022/08/24 06:28:53;;;;;;;8.35;5.95;;;25.70;75.00;;;;;;5054083;28;20036;-77
2022/08/24 06:31:19;;;;;;;7.18;4.20;;;25.70;76.00;;;;;;5053462;28;20017;-77
2022/08/24 06:33:46;;;;;;;5.32;4.82;;;25.70;76.00;;;;;;5053471;28;20036;-78
2022/08/24 06:36:12;;;;;;;10.75;5.88;;;25.70;75.90;;;;;;5053423;28;20023;-77
2022/08/24 06:38:37;;;;;;;8.57;7.38;;;25.70;76.50;;;;;;5053360;28;20024;-77
2022/08/24 06:41:03;;;;;;;11.25;8.15;;;25.70;76.80;;;;;;5053358;28;20096;-77
2022/08/24 06:43:29;;;;;;;11.93;8.98;;;25.70;77.60;;;;;;5053222;28;20099;-77
2022/08/24 06:45:56;;;;;;;4.78;3.75;;;25.60;78.10;;;;;;5053256;28;20128;-77
2022/08/24 06:48:22;;;;;;;5.47;4.18;;;25.60;77.30;;;;;;5053267;28;20025;-77
2022/08/24 06:50:48;;;;;;;4.80;3.72;;;25.70;76.50;;;;;;5053433;28;20029;-78
2022/08/24 06:53:14;;;;;;;10.80;8.98;;;25.90;76.00;;;;;;5053390;28;20028;-78
2022/08/24 06:55:57;;;;;;;19.17;11.98;;;25.90;76.40;;;;;;5053275;28;20021;-78
2022/08/24 06:58:26;;;;;;;16.17;11.02;;;25.90;77.10;;;;;;5053143;28;20021;-78
2022/08/24 07:00:53;;;;;;;12.55;8.48;;;25.90;77.60;;;;;;5053384;28;20080;-78
2022/08/24 07:03:19;;;;;;;15.75;12.07;;;25.80;77.00;;;;;;5053145;28;20033;-77
2022/08/24 07:05:51;;;;;;;20.65;12.25;;;25.80;77.90;;;;;;5052717;28;20047;-77
2022/08/24 07:08:17;;;;;;;;;;;25.70;78.40;;;;;;5053678;28;20060;-78
2022/08/24 07:10:43;;;;;;;18.77;10.88;;;25.70;78.10;;;;;;5053359;28;19936;-78
2022/08/24 07:13:10;;;;;;;20.35;11.68;;;25.70;77.20;;;;;;5053049;28;20552;-78
2022/08/24 07:15:35;;;;;;;23.30;12.73;;;25.80;77.30;;;;;;5053142;28;20021;-78
2022/08/24 07:18:01;;;;;;;20.23;11.68;;;25.70;79.00;;;;;;5057078;28;20040;-78
2022/08/24 07:20:29;;;;;;;15.68;11.60;;;25.60;78.10;;;;;;5056943;28;20025;-78
2022/08/24 07:22:55;;;;;;;23.00;12.18;;;25.50;78.30;;;;;;5057249;28;20112;-78
2022/08/24 07:25:20;;;;;;;15.40;9.73;;;25.50;78.80;;;;;;5056863;28;20133;-78
2022/08/24 07:27:46;;;;;;;14.68;8.55;;;25.70;78.30;;;;;;5056584;28;20028;-78
2022/08/24 07:30:12;;;;;;;18.52;10.02;;;25.90;78.30;;;;;;5056871;28;20496;-78
2022/08/24 07:32:38;;;;;;;19.20;10.63;;;26.00;78.00;;;;;;5057057;28;20369;-77
2022/08/24 07:35:04;;;;;;;16.00;10.05;;;26.10;78.00;;;;;;5056973;28;20024;-77
2022/08/24 07:37:30;;;;;;;21.88;9.73;;;26.10;77.40;;;;;;5056836;28;20063;-78
2022/08/24 07:39:55;;;;;;;13.90;9.57;;;26.00;77.60;;;;;;5056701;28;20558;-78
2022/08/24 07:42:23;;;;;;;15.65;7.53;;;26.00;77.20;;;;;;5056737;28;20096;-78
2022/08/24 07:44:50;;;;;;;14.20;9.63;;;26.20;77.00;;;;;;5056816;28;20032;-78
2022/08/24 07:47:17;;;;;;;15.52;8.50;;;26.30;76.70;;;;;;5056613;28;20025;-78
2022/08/24 07:49:43;;;;;;;13.50;7.60;;;26.50;76.40;;;;;;5056789;28;20032;-77
2022/08/24 07:52:09;;;;;;;11.68;6.45;;;26.60;76.20;;;;;;5056860;28;20025;-78
2022/08/24 07:54:35;;;;;;;9.13;6.35;;;26.70;75.60;;;;;;5056521;28;20029;-78
2022/08/24 07:57:05;;;;;;;13.55;7.90;;;26.70;75.20;;;;;;5056260;28;20112;-77
2022/08/24 07:59:31;;;;;;;16.13;8.00;;;26.80;75.50;;;;;;5056288;28;20460;-77
2022/08/24 08:01:58;;;;;;;8.02;6.30;;;26.90;76.00;;;;;;5056550;28;20039;-78
2022/08/24 08:04:24;;;;;;;11.45;5.82;;;27.00;75.10;;;;;;5056518;28;20025;-77
2022/08/24 08:06:51;;;;;;;9.13;4.72;;;27.10;75.30;;;;;;5056572;28;20029;-78
2022/08/24 08:09:17;;;;;;;11.13;5.93;;;27.20;74.50;;;;;;5056143;28;20033;-78
2022/08/24 08:11:43;;;;;;;7.13;4.70;;;27.30;74.30;;;;;;5056146;28;20473;-78
2022/08/24 08:14:13;;;;;;;6.22;4.45;;;27.30;74.10;;;;;;5055894;28;20032;-78
2022/08/24 08:16:39;;;;;;;6.72;4.03;;;27.40;72.90;;;;;;5056232;28;20053;-78
2022/08/24 08:19:05;;;;;;;6.93;3.50;;;27.50;72.30;;;;;;5056159;28;20079;-76
2022/08/24 08:24:16;;;;;;;7.68;3.13;;;27.70;71.10;;;;;;5055535;28;20067;-78
2022/08/24 08:26:44;;;;;;;6.32;2.92;;;27.80;70.70;;;;;;5055681;28;20384;-78
2022/08/24 08:29:12;;;;;;;6.10;2.65;;;28.00;70.00;;;;;;5056026;28;20033;-78
2022/08/24 08:31:41;;;;;;;8.85;3.00;;;28.00;68.80;;;;;;5055415;28;20044;-78
2022/08/24 08:34:08;;;;;;;9.32;2.67;;;28.10;68.90;;;;;;5055903;28;20396;-79
2022/08/24 08:36:34;;;;;;;6.28;3.05;;;28.00;68.10;;;;;;5055679;28;20036;-79
2022/08/24 08:39:00;;;;;;;7.50;2.40;;;28.10;68.00;;;;;;5056039;28;20090;-77
2022/08/24 08:41:53;;;;;;;9.82;3.13;;;28.20;68.90;;;;;;5055723;28;20477;-79
2022/08/24 08:44:31;;;;;;;8.55;2.78;;;28.20;69.20;;;;;;5055342;28;20381;-78
2022/08/24 08:47:29;;;;;;;4.72;2.10;;;28.10;68.70;;;;;;5055710;28;20415;-79
2022/08/24 08:50:14;;;;;;;5.82;2.80;;;28.30;67.60;;;;;;5043378;28;20086;-79
2022/08/24 08:52:58;;;;;;;8.73;2.20;;;28.40;68.10;;;;;;5055249;28;20476;-78
2022/08/24 08:55:47;;;;;;;4.28;1.30;;;28.40;67.30;;;;;;5055591;28;20025;-79
2022/08/24 08:58:21;;;;;;;3.60;1.58;;;28.50;66.60;;;;;;5055369;28;20029;-78
2022/08/24 09:00:56;;;;;;;4.70;1.23;;;28.70;66.00;;;;;;5055057;28;20029;-79
2022/08/24 09:03:39;;;;;;;5.13;2.25;;;28.80;65.50;;;;;;5055211;28;20040;-79
2022/08/24 09:06:23;;;;;;;3.88;1.33;;;28.90;65.20;;;;;;5055141;28;20496;-78
2022/08/24 09:09:02;;;;;;;3.95;1.35;;;29.00;65.40;;;;;;5055319;28;20380;-79
2022/08/24 09:11:40;;;;;;;3.10;1.00;;;29.20;64.70;;;;;;5054597;28;20031;-79
2022/08/24 09:14:11;;;;;;;2.53;1.20;;;29.30;64.40;;;;;;5054938;28;20040;-79
2022/08/24 09:17:07;;;;;;;2.83;1.30;;;29.40;63.90;;;;;;5055081;28;20443;-79
2022/08/24 09:20:11;;;;;;;3.70;0.90;;;29.40;63.70;;;;;;5054815;28;20083;-79
2022/08/24 09:22:40;;;;;;;2.42;0.98;;;29.50;63.60;;;;;;5054937;28;20384;-79
2022/08/24 09:25:22;;;;;;;4.45;1.75;;;29.60;64.00;;;;;;5054413;28;20497;-79
2022/08/24 09:27:58;;;;;;;3.75;1.20;;;29.50;63.90;;;;;;5054559;28;20464;-79
2022/08/24 09:30:28;;;;;;;2.85;0.93;;;29.50;64.20;;;;;;5054694;28;20469;-79
2022/08/24 09:33:08;;;;;;;2.13;1.23;;;29.60;62.80;;;;;;5054664;28;20036;-79
2022/08/24 09:35:34;;;;;;;3.08;0.80;;;29.60;62.50;;;;;;5054897;28;20017;-79
2022/08/24 09:38:23;;;;;;;3.85;1.23;;;29.60;64.20;;;;;;5054373;28;20020;-79
2022/08/24 09:41:12;;;;;;;5.80;1.40;;;29.70;62.90;;;;;;5054581;28;20036;-79
2022/08/24 09:44:13;;;;;;;3.97;1.20;;;29.80;62.60;;;;;;5054116;28;20055;-79
2022/08/24 09:47:03;;;;;;;3.70;0.90;;;30.00;63.40;;;;;;5045988;28;20029;-79
2022/08/24 09:49:47;;;;;;;2.83;0.70;;;29.90;62.90;;;;;;5054360;28;20052;-79
2022/08/24 09:52:46;;;;;;;2.22;1.00;;;30.10;61.80;;;;;;5054249;28;20079;-79
2022/08/24 09:55:47;;;;;;;1.45;0.90;;;30.20;61.20;;;;;;5053909;28;20025;-79
2022/08/24 09:58:28;;;;;;;1.73;0.60;;;30.20;60.70;;;;;;5045749;28;20033;-79
2022/08/24 10:01:01;;;;;;;2.50;0.90;;;30.30;60.80;;;;;;5054302;28;20124;-80
2022/08/24 10:03:54;;;;;;;2.55;0.57;;;30.40;60.60;;;;;;5054030;28;20040;-79
2022/08/24 10:06:39;;;;;;;1.55;0.60;;;30.40;60.40;;;;;;5054057;28;20071;-79
2022/08/24 10:09:29;;;;;;;1.20;0.43;;;30.50;59.80;;;;;;5053916;28;20032;-79
2022/08/24 10:12:16;;;;;;;3.75;0.47;;;30.60;59.10;;;;;;5053808;28;20416;-79
2022/08/24 10:14:50;;;;;;;1.63;0.50;;;30.70;59.10;;;;;;5053990;28;20068;-79
2022/08/24 10:17:40;;;;;;;2.13;0.40;;;30.70;58.80;;;;;;5053688;28;20029;-80
2022/08/24 10:20:15;;;;;;;3.58;0.55;;;30.80;58.60;;;;;;5053592;28;20449;-80
2022/08/24 10:23:07;;;;;;;2.33;0.30;;;30.90;59.00;;;;;;5053770;28;20037;-80
2022/08/24 10:25:53;;;;;;;1.05;0.30;;;31.10;57.80;;;;;;5053431;28;20496;-79
2022/08/24 10:28:55;;;;;;;1.30;0.10;;;31.20;57.10;;;;;;5053676;28;20059;-80
2022/08/24 10:31:25;;;;;;;;;;;31.20;55.90;;;;;;5053778;28;20112;-79
2022/08/24 10:34:00;;;;;;;3.83;0.20;;;31.20;55.30;;;;;;5053371;28;19909;-80
2022/08/24 10:36:49;;;;;;;1.65;0.28;;;31.20;55.60;;;;;;5053472;28;20461;-78
2022/08/24 10:39:40;;;;;;;1.58;0.20;;;31.20;55.50;;;;;;5053290;28;20021;-80
2022/08/24 10:42:05;;;;;;;0.63;0.20;;;31.20;55.80;;;;;;5053189;28;20047;-80
2022/08/24 10:44:47;;;;;;;0.35;0.20;;;31.30;56.20;;;;;;5053262;28;20104;-80
2022/08/24 10:47:25;;;;;;;0.95;0.20;;;31.50;55.70;;;;;;5053621;28;20070;-80
2022/08/24 10:50:23;;;;;;;0.80;0.20;;;31.70;54.70;;;;;;5053296;28;20033;-80
2022/08/24 10:53:18;;;;;;;1.13;0.20;;;31.80;54.50;;;;;;5053361;28;20032;-80
2022/08/24 10:55:44;;;;;;;1.63;0.32;;;31.80;54.60;;;;;;5053196;28;20021;-80
2022/08/24 10:58:49;;;;;;;1.13;0.20;;;31.90;55.60;;;;;;5052916;28;20393;-80
2022/08/24 11:01:29;;;;;;;2.53;0.30;;;32.00;54.20;;;;;;5048646;28;20032;-80
2022/08/24 11:04:03;;;;;;;3.17;0.20;;;32.00;53.70;;;;;;5053072;28;20029;-80
2022/08/24 11:06:41;;;;;;;2.72;0.52;;;32.00;54.10;;;;;;5052926;28;20036;-80
2022/08/24 11:09:10;;;;;;;2.03;0.40;;;31.90;54.00;;;;;;5052779;28;20033;-80
2022/08/24 11:11:47;;;;;;;1.25;0.40;;;31.90;54.10;;;;;;5052616;28;20461;-80
2022/08/24 11:14:31;;;;;;;3.33;0.40;;;31.90;54.60;;;;;;5052947;28;20128;-78
2022/08/24 11:17:17;;;;;;;1.75;0.32;;;31.80;54.60;;;;;;5052808;28;20032;-80
2022/08/24 11:19:44;;;;;;;4.57;0.40;;;31.80;54.40;;;;;;5052845;28;20056;-79
2022/08/24 11:22:32;;;;;;;3.95;0.40;;;31.80;54.70;;;;;;5053029;28;20036;-79
2022/08/24 11:25:06;;;;;;;1.30;0.40;;;31.90;54.50;;;;;;5052573;28;20504;-79
2022/08/24 11:27:38;;;;;;;2.78;0.47;;;31.90;54.70;;;;;;5053122;28;20425;-79
2022/08/24 11:30:23;;;;;;;1.48;0.52;;;31.90;55.10;;;;;;5052976;28;20029;-79
2022/08/24 11:32:49;;;;;;;2.45;0.40;;;32.00;54.50;;;;;;5052594;28;20028;-79
2022/08/24 11:35:32;;;;;;;3.13;0.55;;;32.10;54.50;;;;;;5052904;28;20086;-79
2022/08/24 11:38:25;;;;;;;1.05;0.32;;;32.10;54.40;;;;;;5052628;28;20025;-80
2022/08/24 11:40:56;;;;;;;2.80;0.65;;;32.00;54.90;;;;;;5053002;28;20029;-79
2022/08/24 11:43:30;;;;;;;4.95;0.90;;;32.10;54.80;;;;;;5052804;28;20522;-79
2022/08/24 11:46:06;;;;;;;1.90;0.40;;;32.00;54.60;;;;;;5052900;28;20033;-79
2022/08/24 11:48:46;;;;;;;6.90;0.57;;;32.00;54.80;;;;;;5052873;28;20457;-80
2022/08/24 11:51:25;;;;;;;6.68;0.60;;;31.90;54.60;;;;;;5052578;28;20045;-79
2022/08/24 11:54:00;;;;;;;1.13;0.77;;;31.90;54.70;;;;;;5052928;28;20075;-79
2022/08/24 11:56:49;;;;;;;2.63;0.30;;;31.90;55.40;;;;;;5052574;28;20369;-80
2022/08/24 11:59:56;;;;;;;2.45;0.32;;;31.90;55.20;;;;;;5052511;28;20380;-79
2022/08/24 12:02:34;;;;;;;1.80;0.52;;;31.80;55.10;;;;;;5050655;28;20048;-79
2022/08/24 12:05:27;;;;;;;2.53;0.70;;;31.80;55.10;;;;;;5056251;28;20029;-79
2022/08/24 12:08:04;;;;;;;2.15;0.55;;;31.70;55.00;;;;;;5055941;28;20068;-79
2022/08/24 12:11:00;;;;;;;4.43;0.70;;;31.60;55.50;;;;;;5056160;28;20384;-79
2022/08/24 12:13:31;;;;;;;3.70;0.60;;;31.60;56.10;;;;;;5056147;28;20100;-79
2022/08/24 12:16:18;;;;;;;3.10;0.70;;;31.60;55.80;;;;;;5056502;28;20075;-79
2022/08/24 12:18:54;;;;;;;1.30;0.40;;;31.70;56.10;;;;;;5055839;28;20266;-79
2022/08/24 12:21:24;;;;;;;1.48;0.60;;;31.70;56.20;;;;;;5056104;28;20035;-79
2022/08/24 12:24:18;;;;;;;2.70;0.80;;;31.80;55.40;;;;;;5055487;28;20037;-79
2022/08/24 12:26:52;;;;;;;2.65;0.55;;;31.90;55.50;;;;;;5054474;28;20037;-79
2022/08/24 12:29:33;;;;;;;1.98;0.50;;;31.90;55.60;;;;;;5055813;28;20488;-79
2022/08/24 12:32:03;;;;;;;5.00;0.88;;;32.00;54.90;;;;;;5055242;28;20068;-79
2022/08/24 12:34:41;;;;;;;4.72;0.57;;;32.10;54.80;;;;;;5055815;28;20025;-79
2022/08/24 12:37:23;;;;;;;4.10;0.63;;;32.10;54.60;;;;;;5055725;28;20123;-80
2022/08/24 12:40:13;;;;;;;1.48;0.45;;;32.10;54.60;;;;;;5055563;28;20492;-79
2022/08/24 12:42:44;;;;;;;0.82;0.40;;;32.00;54.50;;;;;;5055322;28;20028;-80
2022/08/24 12:45:13;;;;;;;5.07;0.60;;;32.00;54.50;;;;;;5055234;28;20025;-79
2022/08/24 12:47:47;;;;;;;1.23;0.50;;;32.00;55.30;;;;;;5055322;28;20025;-79
2022/08/24 12:50:24;;;;;;;5.82;0.77;;;31.90;54.90;;;;;;5054696;28;20025;-79
2022/08/24 12:53:28;;;;;;;1.55;0.40;;;31.70;55.00;;;;;;5055616;28;20056;-79
2022/08/24 12:56:18;;;;;;;1.35;0.68;;;31.60;54.90;;;;;;5055566;28;20021;-79
2022/08/24 12:58:44;;;;;;;3.28;0.43;;;31.60;54.80;;;;;;5055175;28;20036;-79
2022/08/24 13:01:12;;;;;;;0.98;0.40;;;31.50;54.90;;;;;;5055329;28;20020;-79
2022/08/24 13:03:40;;;;;;;4.57;0.52;;;31.50;55.20;;;;;;5054634;28;20463;-79
2022/08/24 13:06:16;;;;;;;4.60;0.70;;;31.50;55.60;;;;;;5055321;28;20017;-79
2022/08/24 13:08:45;;;;;;;2.95;0.60;;;31.50;55.50;;;;;;5055090;28;20108;-78
2022/08/24 13:11:30;;;;;;;3.50;0.60;;;31.70;55.10;;;;;;5055002;28;20044;-79
2022/08/24 13:14:17;;;;;;;2.78;0.40;;;31.90;55.00;;;;;;5054342;28;20099;-79
2022/08/24 13:17:07;;;;;;;1.05;0.50;;;32.20;54.80;;;;;;5054841;28;20468;-79